Szolnok, Hungary
Current Conditions -  °F | °C
As of 7:15 AM on Wednesday 26 Nov 2014 (Local Time) from LHSN Reporting Station
Haze Haze  
Wind Chill: 34°   Ceiling: 400
Heat Index: 37°   Visibility: 1.8mi
Dew Point: 36°   Wind: 5mph
Humidity: 93%   Direction: 70°ENE
Pressure: 30.27"   Gusts: NA
Location:  47.18°N, 20.18°E
Report Text: LHSN 260515Z 07004KT 3000 BR FEW003 BKN004 03/02 Q1025 NOSIG RMK YLO
Loading
Personal Weather Stations






























Interactive Weather Map New forecast layout! Learn more

10-Day Weather Forecast

Advertisements
Track Severe Weather on mobile